sensor_id;sensor_type;location;lat;lon;timestamp;P1;durP1;ratioP1;P2;durP2;ratioP2
22007;SDS011;11168;56.976;24.168;2023-11-19T00:01:28;20.30;;;11.32;;
22007;SDS011;11168;56.976;24.168;2023-11-19T00:03:55;24.33;;;12.27;;
22007;SDS011;11168;56.976;24.168;2023-11-19T00:06:24;23.38;;;12.05;;
22007;SDS011;11168;56.976;24.168;2023-11-19T00:08:51;20.55;;;11.50;;
22007;SDS011;11168;56.976;24.168;2023-11-19T00:11:18;18.73;;;11.50;;
22007;SDS011;11168;56.976;24.168;2023-11-19T00:13:45;22.90;;;12.38;;
22007;SDS011;11168;56.976;24.168;2023-11-19T00:16:12;22.88;;;12.27;;
22007;SDS011;11168;56.976;24.168;2023-11-19T00:18:39;20.98;;;12.38;;
22007;SDS011;11168;56.976;24.168;2023-11-19T00:21:06;21.85;;;12.35;;
22007;SDS011;11168;56.976;24.168;2023-11-19T00:23:34;20.67;;;12.32;;
22007;SDS011;11168;56.976;24.168;2023-11-19T00:26:01;21.02;;;12.13;;
22007;SDS011;11168;56.976;24.168;2023-11-19T00:28:28;20.95;;;11.55;;
22007;SDS011;11168;56.976;24.168;2023-11-19T00:30:55;21.65;;;12.15;;
22007;SDS011;11168;56.976;24.168;2023-11-19T00:33:23;21.67;;;12.40;;
22007;SDS011;11168;56.976;24.168;2023-11-19T00:35:50;22.20;;;12.27;;
22007;SDS011;11168;56.976;24.168;2023-11-19T00:38:17;19.92;;;12.05;;
22007;SDS011;11168;56.976;24.168;2023-11-19T00:40:44;21.13;;;12.48;;
22007;SDS011;11168;56.976;24.168;2023-11-19T00:43:11;24.67;;;12.45;;
22007;SDS011;11168;56.976;24.168;2023-11-19T00:45:38;20.80;;;12.02;;
22007;SDS011;11168;56.976;24.168;2023-11-19T00:48:05;23.63;;;12.27;;
22007;SDS011;11168;56.976;24.168;2023-11-19T00:50:33;22.83;;;12.20;;
22007;SDS011;11168;56.976;24.168;2023-11-19T00:53:03;21.08;;;12.52;;
22007;SDS011;11168;56.976;24.168;2023-11-19T00:55:30;20.23;;;12.45;;
22007;SDS011;11168;56.976;24.168;2023-11-19T00:57:57;21.45;;;12.75;;
22007;SDS011;11168;56.976;24.168;2023-11-19T01:00:24;24.05;;;12.93;;
22007;SDS011;11168;56.976;24.168;2023-11-19T01:02:53;23.02;;;13.05;;
22007;SDS011;11168;56.976;24.168;2023-11-19T01:05:20;22.52;;;13.48;;
22007;SDS011;11168;56.976;24.168;2023-11-19T01:07:50;24.73;;;12.70;;
22007;SDS011;11168;56.976;24.168;2023-11-19T01:10:20;20.45;;;12.10;;
22007;SDS011;11168;56.976;24.168;2023-11-19T01:12:47;22.98;;;12.35;;
22007;SDS011;11168;56.976;24.168;2023-11-19T01:15:14;20.23;;;12.05;;
22007;SDS011;11168;56.976;24.168;2023-11-19T01:17:41;20.95;;;12.23;;
22007;SDS011;11168;56.976;24.168;2023-11-19T01:22:39;23.65;;;12.40;;
22007;SDS011;11168;56.976;24.168;2023-11-19T01:25:07;22.02;;;12.45;;
22007;SDS011;11168;56.976;24.168;2023-11-19T01:27:34;22.10;;;12.15;;
22007;SDS011;11168;56.976;24.168;2023-11-19T01:30:02;21.20;;;12.50;;
22007;SDS011;11168;56.976;24.168;2023-11-19T01:32:32;25.75;;;12.88;;
22007;SDS011;11168;56.976;24.168;2023-11-19T01:34:59;24.00;;;11.95;;
22007;SDS011;11168;56.976;24.168;2023-11-19T01:37:26;20.58;;;11.63;;
22007;SDS011;11168;56.976;24.168;2023-11-19T01:39:53;20.95;;;11.77;;
22007;SDS011;11168;56.976;24.168;2023-11-19T01:42:23;21.60;;;11.83;;
22007;SDS011;11168;56.976;24.168;2023-11-19T01:44:59;17.73;;;9.48;;
22007;SDS011;11168;56.976;24.168;2023-11-19T01:47:27;24.45;;;12.85;;
22007;SDS011;11168;56.976;24.168;2023-11-19T01:49:56;20.27;;;11.35;;
22007;SDS011;11168;56.976;24.168;2023-11-19T01:52:25;20.48;;;11.98;;
22007;SDS011;11168;56.976;24.168;2023-11-19T01:54:53;23.45;;;12.25;;
22007;SDS011;11168;56.976;24.168;2023-11-19T01:57:22;21.98;;;11.80;;
22007;SDS011;11168;56.976;24.168;2023-11-19T01:59:50;21.70;;;12.30;;
22007;SDS011;11168;56.976;24.168;2023-11-19T02:02:18;20.10;;;11.80;;
22007;SDS011;11168;56.976;24.168;2023-11-19T02:04:49;20.83;;;11.77;;
22007;SDS011;11168;56.976;24.168;2023-11-19T02:07:18;20.55;;;11.98;;
22007;SDS011;11168;56.976;24.168;2023-11-19T02:09:47;24.13;;;12.07;;
22007;SDS011;11168;56.976;24.168;2023-11-19T02:12:14;21.10;;;11.82;;
22007;SDS011;11168;56.976;24.168;2023-11-19T02:14:41;23.08;;;12.20;;
22007;SDS011;11168;56.976;24.168;2023-11-19T02:17:24;22.92;;;12.80;;
22007;SDS011;11168;56.976;24.168;2023-11-19T02:19:52;26.48;;;12.50;;
22007;SDS011;11168;56.976;24.168;2023-11-19T02:22:19;22.25;;;12.30;;
22007;SDS011;11168;56.976;24.168;2023-11-19T02:24:47;22.70;;;12.73;;
22007;SDS011;11168;56.976;24.168;2023-11-19T02:29:53;21.52;;;11.93;;
22007;SDS011;11168;56.976;24.168;2023-11-19T02:32:20;23.08;;;12.52;;
22007;SDS011;11168;56.976;24.168;2023-11-19T02:34:47;23.65;;;12.57;;
22007;SDS011;11168;56.976;24.168;2023-11-19T02:37:14;21.38;;;12.40;;
22007;SDS011;11168;56.976;24.168;2023-11-19T02:39:41;21.88;;;12.45;;
22007;SDS011;11168;56.976;24.168;2023-11-19T02:42:08;21.77;;;12.25;;
22007;SDS011;11168;56.976;24.168;2023-11-19T02:44:35;21.50;;;12.75;;
22007;SDS011;11168;56.976;24.168;2023-11-19T02:47:02;21.13;;;12.30;;
22007;SDS011;11168;56.976;24.168;2023-11-19T02:49:29;20.83;;;12.32;;
22007;SDS011;11168;56.976;24.168;2023-11-19T02:51:56;24.67;;;13.48;;
22007;SDS011;11168;56.976;24.168;2023-11-19T02:54:25;24.27;;;12.85;;
22007;SDS011;11168;56.976;24.168;2023-11-19T02:56:53;23.75;;;12.60;;
22007;SDS011;11168;56.976;24.168;2023-11-19T02:59:25;26.55;;;13.73;;
22007;SDS011;11168;56.976;24.168;2023-11-19T03:02:05;21.75;;;12.63;;
22007;SDS011;11168;56.976;24.168;2023-11-19T03:04:38;21.90;;;12.65;;
22007;SDS011;11168;56.976;24.168;2023-11-19T03:07:12;23.83;;;12.77;;
22007;SDS011;11168;56.976;24.168;2023-11-19T03:09:40;24.23;;;13.45;;
22007;SDS011;11168;56.976;24.168;2023-11-19T03:12:07;23.45;;;13.00;;
22007;SDS011;11168;56.976;24.168;2023-11-19T03:14:34;25.65;;;13.50;;
22007;SDS011;11168;56.976;24.168;2023-11-19T03:17:01;24.08;;;13.52;;
22007;SDS011;11168;56.976;24.168;2023-11-19T03:19:30;24.25;;;13.95;;
22007;SDS011;11168;56.976;24.168;2023-11-19T03:21:57;22.80;;;13.68;;
22007;SDS011;11168;56.976;24.168;2023-11-19T03:24:26;21.60;;;12.20;;
22007;SDS011;11168;56.976;24.168;2023-11-19T03:26:53;24.35;;;13.70;;
22007;SDS011;11168;56.976;24.168;2023-11-19T03:29:20;21.95;;;13.18;;
22007;SDS011;11168;56.976;24.168;2023-11-19T03:31:47;26.50;;;14.00;;
22007;SDS011;11168;56.976;24.168;2023-11-19T03:34:14;25.58;;;13.77;;
22007;SDS011;11168;56.976;24.168;2023-11-19T03:36:41;23.25;;;13.35;;
22007;SDS011;11168;56.976;24.168;2023-11-19T03:39:09;19.98;;;12.77;;
22007;SDS011;11168;56.976;24.168;2023-11-19T03:41:36;24.63;;;13.85;;
22007;SDS011;11168;56.976;24.168;2023-11-19T03:44:06;25.02;;;13.02;;
22007;SDS011;11168;56.976;24.168;2023-11-19T03:46:33;23.48;;;13.43;;
22007;SDS011;11168;56.976;24.168;2023-11-19T03:49:01;24.15;;;13.55;;
22007;SDS011;11168;56.976;24.168;2023-11-19T03:51:30;24.90;;;13.73;;
22007;SDS011;11168;56.976;24.168;2023-11-19T03:53:57;26.15;;;13.85;;
22007;SDS011;11168;56.976;24.168;2023-11-19T03:56:25;22.15;;;13.65;;
22007;SDS011;11168;56.976;24.168;2023-11-19T03:58:53;22.50;;;13.45;;
22007;SDS011;11168;56.976;24.168;2023-11-19T04:01:20;23.02;;;12.75;;
22007;SDS011;11168;56.976;24.168;2023-11-19T04:03:47;24.13;;;13.90;;
22007;SDS011;11168;56.976;24.168;2023-11-19T04:06:17;23.40;;;13.50;;
22007;SDS011;11168;56.976;24.168;2023-11-19T04:08:44;25.05;;;13.63;;
22007;SDS011;11168;56.976;24.168;2023-11-19T04:11:11;23.08;;;13.30;;
22007;SDS011;11168;56.976;24.168;2023-11-19T04:13:38;23.17;;;13.18;;
22007;SDS011;11168;56.976;24.168;2023-11-19T04:16:05;25.70;;;12.75;;
22007;SDS011;11168;56.976;24.168;2023-11-19T04:18:32;24.75;;;12.32;;
22007;SDS011;11168;56.976;24.168;2023-11-19T04:20:59;20.88;;;12.27;;
22007;SDS011;11168;56.976;24.168;2023-11-19T04:23:26;23.23;;;13.15;;
22007;SDS011;11168;56.976;24.168;2023-11-19T04:25:53;22.23;;;12.00;;
22007;SDS011;11168;56.976;24.168;2023-11-19T04:28:20;23.08;;;12.27;;
22007;SDS011;11168;56.976;24.168;2023-11-19T04:30:47;24.73;;;11.82;;
22007;SDS011;11168;56.976;24.168;2023-11-19T04:33:14;21.30;;;11.70;;
22007;SDS011;11168;56.976;24.168;2023-11-19T04:35:41;24.30;;;12.63;;
22007;SDS011;11168;56.976;24.168;2023-11-19T04:38:08;24.23;;;13.15;;
22007;SDS011;11168;56.976;24.168;2023-11-19T04:40:35;21.65;;;12.13;;
22007;SDS011;11168;56.976;24.168;2023-11-19T04:43:02;23.73;;;13.07;;
22007;SDS011;11168;56.976;24.168;2023-11-19T04:45:29;22.10;;;12.73;;
22007;SDS011;11168;56.976;24.168;2023-11-19T04:47:56;23.35;;;12.57;;
22007;SDS011;11168;56.976;24.168;2023-11-19T04:50:23;24.38;;;12.68;;
22007;SDS011;11168;56.976;24.168;2023-11-19T04:52:50;24.70;;;12.00;;
22007;SDS011;11168;56.976;24.168;2023-11-19T04:55:17;21.83;;;12.93;;
22007;SDS011;11168;56.976;24.168;2023-11-19T04:57:44;23.80;;;12.98;;
22007;SDS011;11168;56.976;24.168;2023-11-19T05:00:11;21.50;;;11.98;;
22007;SDS011;11168;56.976;24.168;2023-11-19T05:02:43;20.77;;;13.57;;
22007;SDS011;11168;56.976;24.168;2023-11-19T05:05:10;22.23;;;12.55;;
22007;SDS011;11168;56.976;24.168;2023-11-19T05:07:38;20.60;;;11.98;;
22007;SDS011;11168;56.976;24.168;2023-11-19T05:10:05;23.90;;;13.18;;
22007;SDS011;11168;56.976;24.168;2023-11-19T05:12:33;22.00;;;11.85;;
22007;SDS011;11168;56.976;24.168;2023-11-19T05:15:00;20.85;;;12.18;;
22007;SDS011;11168;56.976;24.168;2023-11-19T05:17:27;22.45;;;12.05;;
22007;SDS011;11168;56.976;24.168;2023-11-19T05:19:55;23.13;;;13.15;;
22007;SDS011;11168;56.976;24.168;2023-11-19T05:22:22;24.10;;;14.18;;
22007;SDS011;11168;56.976;24.168;2023-11-19T05:24:49;20.08;;;12.60;;
22007;SDS011;11168;56.976;24.168;2023-11-19T05:27:16;25.55;;;12.82;;
22007;SDS011;11168;56.976;24.168;2023-11-19T05:29:43;22.17;;;13.15;;
22007;SDS011;11168;56.976;24.168;2023-11-19T05:32:10;24.58;;;12.77;;
22007;SDS011;11168;56.976;24.168;2023-11-19T05:34:37;21.08;;;11.98;;
22007;SDS011;11168;56.976;24.168;2023-11-19T05:37:17;23.02;;;12.88;;
22007;SDS011;11168;56.976;24.168;2023-11-19T05:39:45;24.75;;;12.63;;
22007;SDS011;11168;56.976;24.168;2023-11-19T05:42:12;21.88;;;12.60;;
22007;SDS011;11168;56.976;24.168;2023-11-19T05:44:39;23.80;;;12.40;;
22007;SDS011;11168;56.976;24.168;2023-11-19T05:47:07;23.85;;;13.23;;
22007;SDS011;11168;56.976;24.168;2023-11-19T05:49:34;24.02;;;13.13;;
22007;SDS011;11168;56.976;24.168;2023-11-19T05:52:01;23.85;;;13.18;;
22007;SDS011;11168;56.976;24.168;2023-11-19T05:54:30;23.73;;;13.23;;
22007;SDS011;11168;56.976;24.168;2023-11-19T05:56:58;24.02;;;13.80;;
22007;SDS011;11168;56.976;24.168;2023-11-19T05:59:25;21.75;;;12.40;;
22007;SDS011;11168;56.976;24.168;2023-11-19T06:01:52;24.17;;;12.93;;
22007;SDS011;11168;56.976;24.168;2023-11-19T06:04:19;25.33;;;13.30;;
22007;SDS011;11168;56.976;24.168;2023-11-19T06:06:46;23.10;;;12.68;;
22007;SDS011;11168;56.976;24.168;2023-11-19T06:09:13;23.48;;;13.32;;
22007;SDS011;11168;56.976;24.168;2023-11-19T06:11:40;23.95;;;12.52;;
22007;SDS011;11168;56.976;24.168;2023-11-19T06:14:07;24.83;;;13.48;;
22007;SDS011;11168;56.976;24.168;2023-11-19T06:16:34;23.98;;;12.93;;
22007;SDS011;11168;56.976;24.168;2023-11-19T06:19:03;24.00;;;13.07;;
22007;SDS011;11168;56.976;24.168;2023-11-19T06:21:30;22.90;;;12.52;;
22007;SDS011;11168;56.976;24.168;2023-11-19T06:23:58;23.75;;;13.00;;
22007;SDS011;11168;56.976;24.168;2023-11-19T06:26:25;26.02;;;13.55;;
22007;SDS011;11168;56.976;24.168;2023-11-19T06:28:53;21.25;;;13.23;;
22007;SDS011;11168;56.976;24.168;2023-11-19T06:31:20;24.42;;;13.63;;
22007;SDS011;11168;56.976;24.168;2023-11-19T06:33:48;22.88;;;12.75;;
22007;SDS011;11168;56.976;24.168;2023-11-19T06:36:15;21.92;;;12.55;;
22007;SDS011;11168;56.976;24.168;2023-11-19T06:38:44;22.00;;;12.13;;
22007;SDS011;11168;56.976;24.168;2023-11-19T06:41:11;22.55;;;12.35;;
22007;SDS011;11168;56.976;24.168;2023-11-19T06:43:38;22.13;;;12.90;;
22007;SDS011;11168;56.976;24.168;2023-11-19T06:46:14;22.35;;;12.68;;
22007;SDS011;11168;56.976;24.168;2023-11-19T06:48:44;23.08;;;13.63;;
22007;SDS011;11168;56.976;24.168;2023-11-19T06:51:12;22.92;;;13.05;;
22007;SDS011;11168;56.976;24.168;2023-11-19T06:53:39;24.23;;;13.60;;
22007;SDS011;11168;56.976;24.168;2023-11-19T06:56:17;25.27;;;13.90;;
22007;SDS011;11168;56.976;24.168;2023-11-19T06:58:48;24.80;;;13.85;;
22007;SDS011;11168;56.976;24.168;2023-11-19T07:01:17;24.10;;;13.38;;
22007;SDS011;11168;56.976;24.168;2023-11-19T07:03:45;24.23;;;14.20;;
22007;SDS011;11168;56.976;24.168;2023-11-19T07:06:13;22.33;;;12.98;;
22007;SDS011;11168;56.976;24.168;2023-11-19T07:08:41;27.98;;;13.63;;
22007;SDS011;11168;56.976;24.168;2023-11-19T07:11:08;24.10;;;13.65;;
22007;SDS011;11168;56.976;24.168;2023-11-19T07:13:36;24.88;;;14.55;;
22007;SDS011;11168;56.976;24.168;2023-11-19T07:16:04;27.27;;;13.95;;
22007;SDS011;11168;56.976;24.168;2023-11-19T07:18:31;24.52;;;14.70;;
22007;SDS011;11168;56.976;24.168;2023-11-19T07:20:58;26.85;;;13.38;;
22007;SDS011;11168;56.976;24.168;2023-11-19T07:23:26;25.13;;;13.77;;
22007;SDS011;11168;56.976;24.168;2023-11-19T07:25:53;24.52;;;14.20;;
22007;SDS011;11168;56.976;24.168;2023-11-19T07:28:20;25.55;;;14.52;;
22007;SDS011;11168;56.976;24.168;2023-11-19T07:30:47;25.35;;;14.05;;
22007;SDS011;11168;56.976;24.168;2023-11-19T07:33:14;25.48;;;14.52;;
22007;SDS011;11168;56.976;24.168;2023-11-19T07:35:42;23.42;;;13.82;;
22007;SDS011;11168;56.976;24.168;2023-11-19T07:38:09;23.95;;;13.82;;
22007;SDS011;11168;56.976;24.168;2023-11-19T07:40:37;22.52;;;13.75;;
22007;SDS011;11168;56.976;24.168;2023-11-19T07:43:04;24.42;;;13.35;;
22007;SDS011;11168;56.976;24.168;2023-11-19T07:45:31;25.95;;;13.88;;
22007;SDS011;11168;56.976;24.168;2023-11-19T07:47:58;23.80;;;13.55;;
22007;SDS011;11168;56.976;24.168;2023-11-19T07:50:25;23.05;;;13.20;;
22007;SDS011;11168;56.976;24.168;2023-11-19T07:52:52;25.02;;;13.40;;
22007;SDS011;11168;56.976;24.168;2023-11-19T07:55:19;24.30;;;14.10;;
22007;SDS011;11168;56.976;24.168;2023-11-19T07:57:47;26.33;;;13.65;;
22007;SDS011;11168;56.976;24.168;2023-11-19T08:00:15;22.75;;;12.95;;
22007;SDS011;11168;56.976;24.168;2023-11-19T08:02:42;20.83;;;12.77;;
22007;SDS011;11168;56.976;24.168;2023-11-19T08:05:10;23.73;;;13.55;;
22007;SDS011;11168;56.976;24.168;2023-11-19T08:07:38;23.65;;;13.50;;
22007;SDS011;11168;56.976;24.168;2023-11-19T08:10:05;23.02;;;12.95;;
22007;SDS011;11168;56.976;24.168;2023-11-19T08:12:36;25.00;;;13.38;;
22007;SDS011;11168;56.976;24.168;2023-11-19T08:15:03;24.77;;;14.32;;
22007;SDS011;11168;56.976;24.168;2023-11-19T08:17:34;21.35;;;13.60;;
22007;SDS011;11168;56.976;24.168;2023-11-19T08:20:01;24.02;;;13.65;;
22007;SDS011;11168;56.976;24.168;2023-11-19T08:22:30;24.48;;;13.98;;
22007;SDS011;11168;56.976;24.168;2023-11-19T08:24:57;24.30;;;14.02;;
22007;SDS011;11168;56.976;24.168;2023-11-19T08:27:24;22.70;;;13.50;;
22007;SDS011;11168;56.976;24.168;2023-11-19T08:29:53;26.60;;;14.65;;
22007;SDS011;11168;56.976;24.168;2023-11-19T08:32:23;24.23;;;13.90;;
22007;SDS011;11168;56.976;24.168;2023-11-19T08:34:53;23.58;;;14.30;;
22007;SDS011;11168;56.976;24.168;2023-11-19T08:37:20;27.75;;;14.32;;
22007;SDS011;11168;56.976;24.168;2023-11-19T08:39:50;26.50;;;13.52;;
22007;SDS011;11168;56.976;24.168;2023-11-19T08:42:17;30.38;;;13.98;;
22007;SDS011;11168;56.976;24.168;2023-11-19T08:44:48;26.98;;;14.10;;
22007;SDS011;11168;56.976;24.168;2023-11-19T08:47:16;25.25;;;14.70;;
22007;SDS011;11168;56.976;24.168;2023-11-19T08:49:51;26.60;;;14.52;;
22007;SDS011;11168;56.976;24.168;2023-11-19T08:52:22;25.02;;;14.05;;
22007;SDS011;11168;56.976;24.168;2023-11-19T08:54:49;26.40;;;13.82;;
22007;SDS011;11168;56.976;24.168;2023-11-19T08:57:16;25.23;;;14.15;;
22007;SDS011;11168;56.976;24.168;2023-11-19T08:59:43;24.70;;;13.93;;
22007;SDS011;11168;56.976;24.168;2023-11-19T09:02:12;21.80;;;13.55;;
22007;SDS011;11168;56.976;24.168;2023-11-19T09:04:39;23.25;;;13.57;;
22007;SDS011;11168;56.976;24.168;2023-11-19T09:07:07;25.55;;;13.02;;
22007;SDS011;11168;56.976;24.168;2023-11-19T09:09:36;22.15;;;12.65;;
22007;SDS011;11168;56.976;24.168;2023-11-19T09:12:03;20.85;;;13.20;;
22007;SDS011;11168;56.976;24.168;2023-11-19T09:14:30;21.20;;;13.80;;
22007;SDS011;11168;56.976;24.168;2023-11-19T09:16:57;22.48;;;13.02;;
22007;SDS011;11168;56.976;24.168;2023-11-19T09:19:24;22.08;;;13.75;;
22007;SDS011;11168;56.976;24.168;2023-11-19T09:21:53;21.83;;;13.32;;
22007;SDS011;11168;56.976;24.168;2023-11-19T09:24:20;21.15;;;13.13;;
22007;SDS011;11168;56.976;24.168;2023-11-19T09:26:47;22.83;;;12.98;;
22007;SDS011;11168;56.976;24.168;2023-11-19T09:29:14;23.50;;;13.30;;
22007;SDS011;11168;56.976;24.168;2023-11-19T09:31:41;23.70;;;13.57;;
22007;SDS011;11168;56.976;24.168;2023-11-19T09:34:08;23.67;;;13.98;;
22007;SDS011;11168;56.976;24.168;2023-11-19T09:36:35;20.38;;;12.88;;
22007;SDS011;11168;56.976;24.168;2023-11-19T09:39:02;23.02;;;13.18;;
22007;SDS011;11168;56.976;24.168;2023-11-19T09:41:30;22.30;;;12.57;;
22007;SDS011;11168;56.976;24.168;2023-11-19T09:43:58;22.35;;;12.63;;
22007;SDS011;11168;56.976;24.168;2023-11-19T09:46:25;26.05;;;13.57;;
22007;SDS011;11168;56.976;24.168;2023-11-19T09:48:53;20.05;;;12.48;;
22007;SDS011;11168;56.976;24.168;2023-11-19T09:51:21;21.20;;;12.48;;
22007;SDS011;11168;56.976;24.168;2023-11-19T09:53:51;26.33;;;12.73;;
22007;SDS011;11168;56.976;24.168;2023-11-19T09:56:18;23.95;;;13.18;;
22007;SDS011;11168;56.976;24.168;2023-11-19T09:58:45;19.77;;;12.88;;
22007;SDS011;11168;56.976;24.168;2023-11-19T10:01:13;20.50;;;12.45;;
22007;SDS011;11168;56.976;24.168;2023-11-19T10:03:43;22.55;;;13.18;;
22007;SDS011;11168;56.976;24.168;2023-11-19T10:06:14;20.23;;;12.23;;
22007;SDS011;11168;56.976;24.168;2023-11-19T10:08:42;19.45;;;12.60;;
22007;SDS011;11168;56.976;24.168;2023-11-19T10:11:10;19.83;;;11.90;;
22007;SDS011;11168;56.976;24.168;2023-11-19T10:13:39;21.17;;;12.32;;
22007;SDS011;11168;56.976;24.168;2023-11-19T10:16:08;20.50;;;11.93;;
22007;SDS011;11168;56.976;24.168;2023-11-19T10:18:35;22.27;;;12.02;;
22007;SDS011;11168;56.976;24.168;2023-11-19T10:21:06;24.50;;;12.10;;
22007;SDS011;11168;56.976;24.168;2023-11-19T10:23:49;19.23;;;11.88;;
22007;SDS011;11168;56.976;24.168;2023-11-19T10:26:20;20.58;;;12.35;;
22007;SDS011;11168;56.976;24.168;2023-11-19T10:28:47;19.95;;;11.90;;
22007;SDS011;11168;56.976;24.168;2023-11-19T10:31:15;19.23;;;11.05;;
22007;SDS011;11168;56.976;24.168;2023-11-19T10:33:43;18.00;;;10.75;;
22007;SDS011;11168;56.976;24.168;2023-11-19T10:36:12;19.00;;;10.55;;
22007;SDS011;11168;56.976;24.168;2023-11-19T10:38:40;20.17;;;11.20;;
22007;SDS011;11168;56.976;24.168;2023-11-19T10:41:07;22.13;;;11.43;;
22007;SDS011;11168;56.976;24.168;2023-11-19T10:43:43;18.85;;;11.35;;
22007;SDS011;11168;56.976;24.168;2023-11-19T10:46:11;17.40;;;10.20;;
22007;SDS011;11168;56.976;24.168;2023-11-19T10:48:40;18.90;;;10.98;;
22007;SDS011;11168;56.976;24.168;2023-11-19T10:51:07;16.67;;;9.93;;
22007;SDS011;11168;56.976;24.168;2023-11-19T10:53:35;16.77;;;10.55;;
22007;SDS011;11168;56.976;24.168;2023-11-19T10:56:05;19.52;;;10.82;;
22007;SDS011;11168;56.976;24.168;2023-11-19T10:58:40;18.00;;;10.63;;
22007;SDS011;11168;56.976;24.168;2023-11-19T11:01:16;21.15;;;10.57;;
22007;SDS011;11168;56.976;24.168;2023-11-19T11:03:47;17.98;;;10.52;;
22007;SDS011;11168;56.976;24.168;2023-11-19T11:06:17;15.27;;;9.88;;
22007;SDS011;11168;56.976;24.168;2023-11-19T11:08:46;18.92;;;10.25;;
22007;SDS011;11168;56.976;24.168;2023-11-19T11:11:15;18.38;;;10.43;;
22007;SDS011;11168;56.976;24.168;2023-11-19T11:13:43;16.73;;;10.38;;
22007;SDS011;11168;56.976;24.168;2023-11-19T11:16:12;20.67;;;10.90;;
22007;SDS011;11168;56.976;24.168;2023-11-19T11:18:41;14.98;;;9.45;;
22007;SDS011;11168;56.976;24.168;2023-11-19T11:21:09;16.92;;;10.45;;
22007;SDS011;11168;56.976;24.168;2023-11-19T11:29:41;16.92;;;9.23;;
22007;SDS011;11168;56.976;24.168;2023-11-19T11:32:30;17.35;;;9.77;;
22007;SDS011;11168;56.976;24.168;2023-11-19T11:35:22;17.40;;;9.85;;
22007;SDS011;11168;56.976;24.168;2023-11-19T11:38:17;20.65;;;10.20;;
22007;SDS011;11168;56.976;24.168;2023-11-19T11:43:49;17.70;;;9.70;;
22007;SDS011;11168;56.976;24.168;2023-11-19T11:49:03;15.30;;;9.38;;
22007;SDS011;11168;56.976;24.168;2023-11-19T11:54:10;13.77;;;8.43;;
22007;SDS011;11168;56.976;24.168;2023-11-19T12:02:10;16.10;;;8.73;;
22007;SDS011;11168;56.976;24.168;2023-11-19T12:09:52;13.57;;;7.93;;
22007;SDS011;11168;56.976;24.168;2023-11-19T12:12:31;13.10;;;8.40;;
22007;SDS011;11168;56.976;24.168;2023-11-19T12:17:35;16.52;;;9.55;;
22007;SDS011;11168;56.976;24.168;2023-11-19T12:20:07;15.70;;;9.27;;
22007;SDS011;11168;56.976;24.168;2023-11-19T12:22:38;15.75;;;8.95;;
22007;SDS011;11168;56.976;24.168;2023-11-19T12:25:06;16.48;;;8.85;;
22007;SDS011;11168;56.976;24.168;2023-11-19T12:27:36;13.63;;;8.52;;
22007;SDS011;11168;56.976;24.168;2023-11-19T12:30:08;12.00;;;7.88;;
22007;SDS011;11168;56.976;24.168;2023-11-19T12:32:38;15.60;;;9.23;;
22007;SDS011;11168;56.976;24.168;2023-11-19T12:35:09;12.95;;;8.30;;
22007;SDS011;11168;56.976;24.168;2023-11-19T12:40:20;16.33;;;9.30;;
22007;SDS011;11168;56.976;24.168;2023-11-19T12:42:52;18.95;;;10.55;;
22007;SDS011;11168;56.976;24.168;2023-11-19T12:45:20;17.85;;;10.43;;
22007;SDS011;11168;56.976;24.168;2023-11-19T12:47:50;16.52;;;8.95;;
22007;SDS011;11168;56.976;24.168;2023-11-19T12:50:52;15.63;;;9.15;;
22007;SDS011;11168;56.976;24.168;2023-11-19T12:53:20;14.25;;;8.77;;
22007;SDS011;11168;56.976;24.168;2023-11-19T12:55:48;14.73;;;9.00;;
22007;SDS011;11168;56.976;24.168;2023-11-19T12:58:31;11.43;;;7.40;;
22007;SDS011;11168;56.976;24.168;2023-11-19T13:01:01;15.40;;;7.85;;
22007;SDS011;11168;56.976;24.168;2023-11-19T13:03:33;12.20;;;7.47;;
22007;SDS011;11168;56.976;24.168;2023-11-19T13:06:05;14.32;;;7.40;;
22007;SDS011;11168;56.976;24.168;2023-11-19T13:11:32;12.10;;;6.93;;
22007;SDS011;11168;56.976;24.168;2023-11-19T13:14:03;10.88;;;6.53;;
22007;SDS011;11168;56.976;24.168;2023-11-19T13:16:31;11.95;;;6.38;;
22007;SDS011;11168;56.976;24.168;2023-11-19T13:18:59;10.88;;;6.18;;
22007;SDS011;11168;56.976;24.168;2023-11-19T13:21:27;11.52;;;6.93;;
22007;SDS011;11168;56.976;24.168;2023-11-19T13:23:54;10.90;;;7.07;;
22007;SDS011;11168;56.976;24.168;2023-11-19T13:26:21;16.63;;;6.57;;
22007;SDS011;11168;56.976;24.168;2023-11-19T13:28:49;12.93;;;6.80;;
22007;SDS011;11168;56.976;24.168;2023-11-19T13:31:16;10.18;;;6.50;;
22007;SDS011;11168;56.976;24.168;2023-11-19T13:33:43;8.82;;;5.88;;
22007;SDS011;11168;56.976;24.168;2023-11-19T13:36:10;9.57;;;6.07;;
22007;SDS011;11168;56.976;24.168;2023-11-19T13:38:42;8.40;;;5.38;;
22007;SDS011;11168;56.976;24.168;2023-11-19T13:41:10;9.07;;;5.63;;
22007;SDS011;11168;56.976;24.168;2023-11-19T13:43:39;11.23;;;5.88;;
22007;SDS011;11168;56.976;24.168;2023-11-19T13:46:06;12.32;;;6.80;;
22007;SDS011;11168;56.976;24.168;2023-11-19T13:48:35;16.95;;;7.10;;
22007;SDS011;11168;56.976;24.168;2023-11-19T13:51:02;12.00;;;7.05;;
22007;SDS011;11168;56.976;24.168;2023-11-19T13:53:30;10.85;;;6.78;;
22007;SDS011;11168;56.976;24.168;2023-11-19T13:55:57;13.98;;;7.05;;
22007;SDS011;11168;56.976;24.168;2023-11-19T13:58:24;10.38;;;7.18;;
22007;SDS011;11168;56.976;24.168;2023-11-19T14:00:51;11.55;;;7.50;;
22007;SDS011;11168;56.976;24.168;2023-11-19T14:03:18;15.00;;;7.97;;
22007;SDS011;11168;56.976;24.168;2023-11-19T14:05:45;16.55;;;8.35;;
22007;SDS011;11168;56.976;24.168;2023-11-19T14:08:12;15.38;;;7.72;;
22007;SDS011;11168;56.976;24.168;2023-11-19T14:10:50;14.52;;;8.40;;
22007;SDS011;11168;56.976;24.168;2023-11-19T14:13:18;15.35;;;8.52;;
22007;SDS011;11168;56.976;24.168;2023-11-19T14:15:45;16.92;;;8.77;;
22007;SDS011;11168;56.976;24.168;2023-11-19T14:18:15;17.93;;;9.17;;
22007;SDS011;11168;56.976;24.168;2023-11-19T14:20:42;16.27;;;9.38;;
22007;SDS011;11168;56.976;24.168;2023-11-19T14:23:10;19.05;;;9.13;;
22007;SDS011;11168;56.976;24.168;2023-11-19T14:25:37;15.38;;;9.52;;
22007;SDS011;11168;56.976;24.168;2023-11-19T14:28:04;21.23;;;10.75;;
22007;SDS011;11168;56.976;24.168;2023-11-19T14:30:32;18.20;;;9.80;;
22007;SDS011;11168;56.976;24.168;2023-11-19T14:33:01;17.30;;;9.45;;
22007;SDS011;11168;56.976;24.168;2023-11-19T14:35:30;13.52;;;8.32;;
22007;SDS011;11168;56.976;24.168;2023-11-19T14:37:59;20.85;;;10.63;;
22007;SDS011;11168;56.976;24.168;2023-11-19T14:40:26;19.05;;;10.93;;
22007;SDS011;11168;56.976;24.168;2023-11-19T14:42:56;19.98;;;10.88;;
22007;SDS011;11168;56.976;24.168;2023-11-19T14:45:23;22.08;;;12.38;;
22007;SDS011;11168;56.976;24.168;2023-11-19T14:47:50;21.98;;;12.18;;
22007;SDS011;11168;56.976;24.168;2023-11-19T14:50:17;22.98;;;12.27;;
22007;SDS011;11168;56.976;24.168;2023-11-19T14:52:44;19.83;;;11.68;;
22007;SDS011;11168;56.976;24.168;2023-11-19T14:55:11;20.35;;;12.15;;
22007;SDS011;11168;56.976;24.168;2023-11-19T14:57:38;23.80;;;12.93;;